Terminal Aerodrome Forecast
Issued by NWS

Home | Current Version | Previous Version | Text Only | Print | Product List | Glossary On
Versions: 1 2 3 4 5 6 7 8 9 10 11 12 13 14 15 16 17 18 19
000
FTUS41 KCAR 241734
TAFBHB
TAF
KBHB 241734Z 2418/2518 VRB03KT P6SM OVC080
     FM250000 19004KT P6SM OVC030
     FM250300 20004KT P6SM OVC015 WS020/23035KT
     FM250600 21005KT 1SM -DZ BR OVC005
     FM251500 17006KT 5SM -DZ OVC010=

USA.gov is the U.S. government's official web portal to all federal, state and local government web resources and services.